CheckWX is a tool to help pilots better visualize weather data.  It is not intended as a substitute for an official pre-flight weather briefing.

22:18:35 UTC

46D METAR
Carrington Municipal Airport
Carrington, North Dakota, USA
Current

24 mins ago

K46D 252155Z AUTO 12006KT 10SM CLR M01/M06 A3037 RMK AO2
Observed
Mar-25 @ 21:55 UTC
Wind
  • 120° at 6 KTS
Visibility
10 SM
Flight Rules
VFR
Cloud Levels
  • Clear skies
Temperature
-1°C / 30°F
Dewpoint
-6°C / 21°F
Humidity
69%
Altimeter
30.37" Hg
Pressure
1028.42 hPa
Previous

44 mins ago

K46D 252135Z AUTO 12006KT 10SM CLR M01/M07 A3038 RMK AO2 LTG DSNT S
Observed
Mar-25 @ 21:35 UTC
Wind
  • 120° at 6 KTS
Visibility
10 SM
Flight Rules
VFR
Cloud Levels
  • Clear skies
Temperature
-1°C / 30°F
Dewpoint
-7°C / 19°F
Humidity
64%
Altimeter
30.38" Hg
Pressure
1028.81 hPa
Previous

1 hour ago

K46D 252115Z AUTO 14006KT 10SM CLR M01/M08 A3038 RMK AO2
Observed
Mar-25 @ 21:15 UTC
Wind
  • 140° at 6 KTS
Visibility
10 SM
Flight Rules
VFR
Cloud Levels
  • Clear skies
Temperature
-1°C / 30°F
Dewpoint
-8°C / 18°F
Humidity
59%
Altimeter
30.38" Hg
Pressure
1028.81 hPa